Station: Cummins Airport

  Atmospheric Gas Attenuation - ITU Rec 676-11   --------------- db/100km ---------------
Date Time Temp RH % AH g/m3 Dew Point Wind Direction Speed kph Gust kph Barometer mB Rainfall Since 9am 24GHz 47GHz 76GHz 122GHz 134GHz 241GHz
27 14:50 16.9 55 7.91 7.8 24 28 1022.3 0 18.0 24.3 36.0 94.3 86.6 297.5
27 14:40 17.5 56 8.35 8.6 19 28 1022.5 0 18.9 24.8 37.4 98.1 91.4 314.5
27 14:30 17.3 52 7.66 7.4 19 30 1022.7 0 17.4 23.8 34.9 91.4 83.1 285.3
27 14:20 17.9 54 8.24 8.5 22 26 1022.8 0 18.6 24.5 36.9 96.5 89.6 308.2
27 14:10 17.9 54 8.24 8.5 24 32 1022.8 0 18.6 24.5 36.9 96.5 89.6 308.2
27 14:00 17.8 55 8.35 8.6 20 28 1023.2 0 18.9 24.7 37.3 97.8 91.1 313.5
27 13:50 17.8 54 8.2 8.4 22 26 1023 0 18.5 24.5 36.8 96.2 89.3 306.9
27 13:40 17.8 52 7.89 7.8 19 22 1023.2 0 17.9 24.0 35.6 93.2 85.4 293.5
27 13:30 17.6 53 7.95 7.9 19 32 1023.3 0 18.0 24.2 35.9 94.0 86.4 296.9
27 13:20 17.5 52 7.75 7.5 17 22 1023.4 0 17.6 23.9 35.2 92.1 84.1 288.6
27 13:10 17.3 54 7.95 7.9 19 26 1023.4 0 18.0 24.3 36.1 94.4 86.7 298.0
27 13:00 17.4 54 8 8 20 32 1023.4 0 18.1 24.3 36.2 94.7 87.3 299.8
27 12:50 17.1 54 7.86 7.7 20 26 1023.5 0 17.9 24.2 35.8 93.7 85.9 294.9
27 12:40 17 53 7.67 7.4 26 32 1023.6 0 17.5 23.9 35.1 91.9 83.6 287.0
27 12:30 17.4 57 8.45 8.8 19 30 1023.9 0 19.1 25.0 37.9 99.3 92.9 319.6
27 12:20 16.9 56 8.05 8.1 15 19 1024.2 0 18.3 24.6 36.6 95.9 88.5 304.1
27 12:10 17 56 8.1 8.2 19 20 1024.6 0 18.4 24.6 36.8 96.3 89.0 306.0
27 12:00 16.3 57 7.91 7.8 17 26 1024.8 0 18.0 24.5 36.4 95.3 87.4 300.3
27 11:50 16.7 54 7.67 7.4 15 20 1024.9 0 17.5 24.1 35.3 92.4 84.0 288.4
27 11:40 16.5 56 7.86 7.7 19 20 1025 0 17.9 24.4 36.1 94.5 86.6 297.4
27 11:30 16.3 58 8.05 8 17 24 1025.2 0 18.3 24.8 37.0 96.7 89.2 306.6
27 11:20 16 58 7.9 7.7 22 26 1025.2 0 18.0 24.6 36.5 95.6 87.7 301.1
27 11:10 15.9 58 7.85 7.7 19 22 1025.4 0 17.9 24.6 36.4 95.2 87.2 299.3
27 11:00 16 60 8.17 8.2 17 28 1025.6 0 18.6 25.0 37.6 98.4 91.1 313.2
27 10:50 15.7 61 8.16 8.2 17 19 1025.6 0 18.6 25.1 37.7 98.6 91.4 313.9
27 10:40 15.5 61 8.06 8 19 20 1025.8 0 18.3 25.0 37.4 97.9 90.3 310.3
27 10:30 15.1 62 8 7.9 19 24 1026 0 18.2 25.0 37.4 97.8 90.0 309.2
27 10:20 14.7 61 7.68 7.3 13 17 1025.9 0 17.6 24.6 36.3 94.9 86.4 296.4
27 10:10 14.6 63 7.88 7.6 22 24 1026 0 18.0 25.0 37.1 97.1 89.1 305.8
27 10:00 14.7 64 8.06 8 20 33 1026.2 0 18.4 25.3 37.8 98.9 91.3 313.5
27 09:50 14.5 65 8.08 8 19 22 1026.1 0 18.4 25.3 38.0 99.4 91.8 315.2
27 09:40 14 66 7.96 7.8 20 26 1026.2 0 18.2 25.3 37.7 98.7 90.8 311.8
27 09:30 13.7 65 7.7 7.2 20 32 1026.4 0 17.7 25.0 36.9 96.4 87.8 301.2
27 09:20 13.3 66 7.63 7.1 20 24 1026.4 0 17.5 25.0 36.8 96.1 87.3 299.5
27 09:10 13.2 69 7.92 7.6 20 26 1026.5 0 18.2 25.5 38.0 99.3 91.2 313.2
27 09:00 13 72 8.17 8.1 17 24 1026.7 0 18.7 25.9 39.1 102.3 94.8 325.6
27 08:50 12.8 82 9.19 9.8 17 20 1026.7 0 20.9 27.7 43.4 113.8 108.9 374.8
27 08:40 11.8 100 10.53 11.8 15 19 1026.8 0 23.8 30.4 49.8 130.8 129.5 446.8
27 08:30 11.3 100 10.2 11.3 7 15 1027 0 23.1 29.9 48.6 127.8 125.5 432.9
27 08:20 9.8 9.9 0 0 1026.8 0
27 08:10 8.4 8.5 0 0 1026.7 0
27 08:00 6.8 100 7.65 6.8 0 0 1026.8 0 17.9 26.9 40.0 104.7 95.3 326.5
27 07:50 6.1 6.2 0 0 1026.5 0
27 07:40 5.5 5.6 0 0 1026.3 0
27 07:30 4.7 100 6.67 4.7 0 0 1026.3 0 15.8 25.8 36.8 96.2 83.9 286.3
27 07:20 3.4 3.5 0 0 1026.3 0
27 07:10 2.2 100 5.64 2.2 0 0 1026.2 0 13.7 24.8 33.6 87.5 72.0 244.3
27 07:00 1.1 100 5.23 1.1 0 0 1026.3 0 12.9 24.4 32.3 84.1 67.4 227.7
27 06:50 0.6 100 5.06 0.6 0 0 1026.1 0 12.5 24.3 31.8 82.7 65.4 220.9
27 06:40 0.1 100 4.89 0.1 0 0 1025.9 0 12.2 24.1 31.3 81.3 63.5 213.9
27 06:30 -0.2 100 4.79 -0.2 0 0 1025.9 0 12.0 24.0 31.0 80.5 62.3 209.9
27 06:20 -0.4 100 4.72 -0.4 0 0 1025.7 0 11.8 23.9 30.7 79.9 61.5 207.0
27 06:10 -0.5 100 4.69 -0.5 0 0 1025.6 0 11.8 23.9 30.6 79.7 61.2 205.8
27 06:00 -0.2 100 4.79 -0.2 0 0 1025.6 0 12.0 24.0 30.9 80.5 62.3 209.9
27 05:50 -0.4 100 4.72 -0.4 0 0 1025.4 0 11.8 23.9 30.7 79.9 61.5 207.0
27 05:40 -0.3 100 4.75 -0.3 0 0 1025.2 0 11.9 23.9 30.8 80.1 61.8 208.1
27 05:30 -0.4 100 4.72 -0.4 0 0 1025.2 0 11.8 23.9 30.7 79.9 61.5 206.9
27 05:10 0 100 4.85 0 0 0 1024.9 0 12.1 24.0 31.1 80.9 62.9 212.1
27 04:40 -0.7 100 4.62 -0.7 0 0 1024.7 0 11.6 23.8 30.4 79.0 60.3 202.8
27 04:30 -0.5 100 4.69 -0.5 0 0 1024.8 0 11.8 23.9 30.6 79.6 61.1 205.7
27 04:20 -0.7 100 4.62 -0.7 0 0 1024.7 0 11.6 23.8 30.4 79.0 60.3 202.8
27 04:10 -0.5 100 4.69 -0.5 0 0 1024.7 0 11.8 23.9 30.6 79.6 61.1 205.6
27 04:00 -0.3 100 4.75 -0.3 0 0 1024.8 0 11.9 23.9 30.8 80.0 61.8 208.0
27 03:50 0 100 4.85 0 0 0 1024.7 0 12.1 24.0 31.1 80.8 62.9 212.1
27 03:40 -0.1 100 4.82 -0.1 0 0 1024.6 0 12.0 24.0 31.0 80.6 62.6 210.9
27 03:30 -0.4 100 4.72 -0.4 0 0 1024.6 0 11.8 23.9 30.7 79.8 61.5 206.8
27 03:20 -0.3 100 4.75 -0.3 0 0 1024.5 0 11.9 23.9 30.8 80.0 61.8 208.0
27 03:10 -0.1 100 4.82 -0.1 0 0 1024.6 0 12.0 24.0 31.0 80.6 62.6 210.9
27 03:00 -0.3 100 4.75 -0.3 0 0 1024.6 0 11.9 23.9 30.8 80.0 61.8 208.0
27 02:50 -0.5 100 4.69 -0.5 0 0 1024.6 0 11.8 23.9 30.6 79.6 61.1 205.6
27 02:40 -0.4 100 4.72 -0.4 0 0 1024.6 0 11.8 23.9 30.7 79.8 61.5 206.8
27 02:30 -0.5 100 4.69 -0.5 6 7 1024.8 0 11.8 23.9 30.6 79.6 61.1 205.7
27 02:20 -0.5 100 4.69 -0.5 7 7 1024.7 0 11.8 23.9 30.6 79.6 61.1 205.6
27 02:10 -0.2 100 4.79 -0.2 0 0 1024.7 0 12.0 24.0 30.9 80.4 62.3 209.7
27 02:00 -0.2 100 4.79 -0.2 0 0 1024.8 0 12.0 24.0 30.9 80.4 62.3 209.7
27 01:50 0.1 100 4.89 0.1 0 0 1024.7 0 12.2 24.0 31.2 81.2 63.4 213.7
27 01:40 0.4 100 4.99 0.4 0 0 1024.9 0 12.4 24.1 31.5 82.0 64.6 217.8
27 01:30 1.1 100 5.23 1.1 0 0 1025 0 12.9 24.4 32.2 84.0 67.3 227.5
27 01:20 1 100 5.2 1 0 0 1025 0 12.8 24.3 32.2 83.7 66.9 226.3
27 01:10 1.3 100 5.3 1.3 0 0 1025 0 13.0 24.4 32.5 84.5 68.1 230.3
27 01:00 1.9 100 5.53 1.9 2 6 1025.1 0 13.5 24.6 33.2 86.5 70.7 239.7
27 00:50 2 100 5.56 2 6 6 1025 0 13.6 24.7 33.3 86.7 71.0 240.8
27 00:40 2 100 5.56 2 6 7 1025 0 13.6 24.7 33.3 86.7 71.0 240.8
27 00:30 1.9 100 5.53 1.9 7 9 1025.1 0 13.5 24.6 33.2 86.5 70.7 239.7
27 00:20 1.5 100 5.38 1.5 7 9 1025.1 0 13.2 24.5 32.7 85.2 69.0 233.6
27 00:10 1.7 100 5.45 1.7 7 7 1025.1 0 13.3 24.6 32.9 85.8 69.8 236.4
27 00:00 1.3 100 5.3 1.3 9 11 1025.2 0 13.0 24.4 32.5 84.5 68.1 230.3
26 23:50 1.3 100 5.3 1.3 9 11 1025.1 0 13.0 24.4 32.5 84.5 68.1 230.3
26 23:40 1.4 99 5.29 1.3 9 11 1025.1 0 13.0 24.4 32.4 84.3 67.9 229.5
26 23:30 1.5 100 5.38 1.5 0 0 1025.3 0 13.2 24.5 32.7 85.2 69.0 233.6
26 23:20 1.9 99 5.47 1.8 0 0 1025.2 0 13.4 24.5 32.9 85.8 69.9 236.8
26 23:10 2.2 100 5.64 2.2 0 0 1025.3 0 13.7 24.8 33.5 87.4 72.0 244.1
26 23:00 2.8 100 5.87 2.8 0 0 1025.4 0 14.2 25.0 34.2 89.3 74.6 253.5
26 22:50 3.5 99 6.09 3.4 0 0 1025.3 0 14.6 25.2 34.9 91.0 77.0 261.9
26 22:40 3.8 100 6.28 3.8 0 0 1025.3 0 15.0 25.4 35.5 92.7 79.3 270.1
26 22:30 4 100 6.36 4 6 7 1025.5 0 15.2 25.5 35.8 93.4 80.2 273.4
26 22:20 4 99 6.3 3.9 7 7 1025.3 0 15.1 25.4 35.5 92.7 79.4 270.4
26 22:10 4 100 6.36 4 6 6 1025.3 0 15.2 25.5 35.8 93.4 80.2 273.3
26 22:00 3.9 99 6.26 3.8 7 9 1025.5 0 15.0 25.3 35.4 92.4 79.0 268.8
26 21:50 4.2 99 6.38 4.1 7 9 1025.4 0 15.2 25.5 35.8 93.4 80.3 273.6

Last Refresh: 27-Sep-2020 15:00:03

Most of the information presented on this site is sourced from the Bureau of Meteorology.  Copyright in all material sourced from the Bureau of Meteorology resides with the Commonwealth of Australia.